Time;durP1;ratioP1;P1;durP2;ratioP2;P2;SDS_P1;SDS_P2;PMS_P1;PMS_P2;Temp;Humidity;BMP_temperature;BMP_pressure;BME280_temperature;BME280_humidity;BME280_pressure;Samples;Min_cycle;Max_cycle;Signal;HPM_P1;HPM_P2
2022/03/28 00:02:27;;;;;;;14.73;6.40;;;;;8.40;102093.00;;;;5047793;28;20233;-71
2022/03/28 00:05:15;;;;;;;15.30;6.40;;;;;8.40;102085.00;;;;5035440;28;20692;-69
2022/03/28 00:08:01;;;;;;;14.30;6.93;;;;;8.40;102117.00;;;;5047387;28;20228;-70
2022/03/28 00:10:47;;;;;;;12.43;6.30;;;;;8.20;102111.00;;;;5043666;28;20261;-69
2022/03/28 00:13:34;;;;;;;10.47;5.43;;;;;8.20;102119.00;;;;5047858;28;20344;-69
2022/03/28 00:16:20;;;;;;;12.93;5.93;;;;;8.30;102111.00;;;;5041607;28;20250;-70
2022/03/28 00:19:08;;;;;;;12.90;6.43;;;;;8.20;102112.00;;;;5035715;28;20230;-69
2022/03/28 00:21:56;;;;;;;13.53;6.03;;;;;8.30;102107.00;;;;5039195;28;20230;-70
2022/03/28 00:24:42;;;;;;;11.27;5.17;;;;;8.20;102108.00;;;;5046877;28;20241;-70
2022/03/28 00:27:29;;;;;;;16.63;6.90;;;;;8.20;102094.00;;;;5038660;28;20233;-70
2022/03/28 00:30:15;;;;;;;16.07;6.60;;;;;8.20;102093.00;;;;5034319;28;20749;-68
2022/03/28 00:33:02;;;;;;;12.07;6.13;;;;;8.10;102086.00;;;;5030834;28;20238;-69
2022/03/28 00:35:50;;;;;;;10.90;5.07;;;;;8.10;102091.00;;;;5043941;28;20224;-71
2022/03/28 00:38:36;;;;;;;13.83;6.50;;;;;7.90;102091.00;;;;5044153;28;20240;-70
2022/03/28 00:41:23;;;;;;;13.43;6.10;;;;;8.00;102082.00;;;;5047268;28;20313;-69
2022/03/28 00:44:09;;;;;;;12.00;6.27;;;;;7.90;102084.00;;;;5046983;28;21024;-70
2022/03/28 00:46:56;;;;;;;11.57;6.00;;;;;7.90;102085.00;;;;5042667;28;20288;-69
2022/03/28 00:49:42;;;;;;;18.43;6.97;;;;;7.90;102071.00;;;;5045952;28;20783;-70
2022/03/28 00:52:29;;;;;;;13.00;6.50;;;;;7.90;102069.00;;;;5045992;28;20609;-68
2022/03/28 00:55:15;;;;;;;14.87;6.20;;;;;7.80;102063.00;;;;5034081;28;21004;-71
2022/03/28 00:58:01;;;;;;;19.93;6.90;;;;;7.80;102061.00;;;;5033056;28;20224;-70
2022/03/28 01:00:48;;;;;;;16.40;6.23;;;;;7.70;102062.00;;;;5043608;28;20327;-70
2022/03/28 01:03:34;;;;;;;16.10;6.73;;;;;7.80;102053.00;;;;5046512;28;20228;-66
2022/03/28 01:06:21;;;;;;;14.00;5.87;;;;;7.80;102038.00;;;;5028611;28;20233;-70
2022/03/28 01:09:08;;;;;;;17.07;5.93;;;;;7.80;102048.00;;;;5031055;28;20303;-70
2022/03/28 01:11:55;;;;;;;13.93;6.83;;;;;7.70;102052.00;;;;5044004;28;20637;-70
2022/03/28 01:14:42;;;;;;;15.50;6.33;;;;;7.80;102055.00;;;;5043286;28;20236;-69
2022/03/28 01:20:38;;;;;;;14.13;6.67;;;;;7.60;102038.00;;;;5024831;28;20236;-69
2022/03/28 01:23:26;;;;;;;13.27;6.10;;;;;7.50;102042.00;;;;5035675;28;20228;-69
2022/03/28 01:26:14;;;;;;;14.37;6.20;;;;;7.60;102043.00;;;;5032264;28;20229;-68
2022/03/28 01:29:01;;;;;;;12.80;6.13;;;;;7.50;102038.00;;;;5044817;28;20243;-69
2022/03/28 01:31:47;;;;;;;17.90;6.27;;;;;7.50;102030.00;;;;5043704;28;20244;-69
2022/03/28 01:34:34;;;;;;;17.60;6.77;;;;;7.50;102036.00;;;;5045538;28;20244;-69
2022/03/28 01:37:20;;;;;;;14.83;6.67;;;;;7.50;102024.00;;;;5033875;28;20418;-69
2022/03/28 01:40:09;;;;;;;18.07;5.97;;;;;7.50;102018.00;;;;5029488;28;20229;-67
2022/03/28 01:42:55;;;;;;;13.23;6.50;;;;;7.40;102017.00;;;;5043163;28;20698;-69
2022/03/28 01:45:41;;;;;;;12.67;6.73;;;;;7.50;102016.00;;;;5045492;28;20619;-69
2022/03/28 01:48:29;;;;;;;14.03;6.00;;;;;7.30;102010.00;;;;5045889;28;20232;-69
2022/03/28 01:51:15;;;;;;;12.17;6.20;;;;;7.30;102012.00;;;;5031948;28;20307;-70
2022/03/28 01:54:01;;;;;;;16.10;7.27;;;;;7.30;102009.00;;;;5045146;28;20232;-71
2022/03/28 01:56:49;;;;;;;14.10;6.33;;;;;7.30;102004.00;;;;5045601;28;20232;-68
2022/03/28 01:59:35;;;;;;;12.90;5.90;;;;;7.20;101996.00;;;;5045066;28;20244;-69
2022/03/28 02:02:21;;;;;;;15.60;7.27;;;;;7.20;102004.00;;;;5045478;28;20267;-70
2022/03/28 02:05:11;;;;;;;13.63;5.83;;;;;7.20;101990.00;;;;5044064;28;20270;-69
2022/03/28 02:07:59;;;;;;;19.50;7.10;;;;;7.10;101991.00;;;;5044861;28;20384;-68
2022/03/28 02:10:45;;;;;;;15.03;6.73;;;;;7.20;101994.00;;;;5045075;28;20702;-66
2022/03/28 02:13:33;;;;;;;17.20;6.97;;;;;7.20;101990.00;;;;5045190;28;20751;-68
2022/03/28 02:16:19;;;;;;;16.50;7.27;;;;;7.10;101969.00;;;;5032303;28;20224;-70
2022/03/28 02:19:05;;;;;;;13.37;6.00;;;;;7.00;101979.00;;;;5042526;28;20708;-69
2022/03/28 02:21:52;;;;;;;12.93;5.80;;;;;7.00;101982.00;;;;5045419;28;20236;-69
2022/03/28 02:24:39;;;;;;;13.97;6.73;;;;;6.90;101978.00;;;;5045039;28;20240;-69
2022/03/28 02:27:25;;;;;;;17.47;6.37;;;;;7.00;101975.00;;;;5039569;28;20224;-69
2022/03/28 02:30:14;;;;;;;17.43;7.23;;;;;7.00;101967.00;;;;5038231;28;20294;-69
2022/03/28 02:33:01;;;;;;;14.47;6.17;;;;;6.90;101960.00;;;;5044565;28;20946;-71
2022/03/28 02:35:47;;;;;;;17.43;6.63;;;;;6.90;101958.00;;;;5044746;28;20267;-70
2022/03/28 02:38:33;;;;;;;15.37;6.83;;;;;6.90;101957.00;;;;5044368;28;20283;-70
2022/03/28 02:41:19;;;;;;;18.37;8.20;;;;;7.00;101951.00;;;;5031737;28;20391;-70
2022/03/28 02:44:05;;;;;;;13.30;6.47;;;;;6.90;101947.00;;;;5044611;28;20708;-69
2022/03/28 02:46:53;;;;;;;14.60;6.73;;;;;6.80;101950.00;;;;5045055;28;20252;-67
2022/03/28 02:49:39;;;;;;;15.40;6.93;;;;;6.80;101933.00;;;;5044695;28;20311;-69
2022/03/28 02:52:26;;;;;;;19.27;7.40;;;;;6.70;101944.00;;;;5033322;28;20744;-69
2022/03/28 02:55:14;;;;;;;13.80;7.13;;;;;6.90;101928.00;;;;5029453;28;20239;-69
2022/03/28 02:58:00;;;;;;;16.20;7.10;;;;;6.80;101929.00;;;;5043714;28;20227;-69
2022/03/28 03:00:47;;;;;;;15.70;6.93;;;;;6.80;101929.00;;;;5044490;28;20787;-69
2022/03/28 03:03:35;;;;;;;12.30;6.30;;;;;6.70;101924.00;;;;5044835;28;20322;-68
2022/03/28 03:06:22;;;;;;;15.40;6.53;;;;;6.60;101910.00;;;;5033592;28;20236;-70
2022/03/28 03:09:07;;;;;;;16.20;6.80;;;;;6.70;101907.00;;;;5044104;28;20232;-68
2022/03/28 03:11:54;;;;;;;15.43;7.30;;;;;6.60;101904.00;;;;5044609;28;20259;-69
2022/03/28 03:14:40;;;;;;;13.80;6.03;;;;;6.50;101894.00;;;;5044398;28;20235;-69
2022/03/28 03:17:26;;;;;;;14.83;6.63;;;;;6.50;101889.00;;;;5033020;28;20765;-66
2022/03/28 03:20:14;;;;;;;13.13;6.03;;;;;6.50;101900.00;;;;5044284;28;20632;-68
2022/03/28 03:23:00;;;;;;;13.07;6.93;;;;;6.50;101905.00;;;;5044126;28;20232;-67
2022/03/28 03:25:46;;;;;;;15.03;6.43;;;;;6.40;101899.00;;;;5043688;28;20231;-68
2022/03/28 03:28:32;;;;;;;14.70;6.90;;;;;6.40;101891.00;;;;5043932;28;20229;-69
2022/03/28 03:31:19;;;;;;;20.03;7.70;;;;;6.40;101891.00;;;;5030434;28;20296;-68
2022/03/28 03:34:05;;;;;;;16.20;6.53;;;;;6.40;101886.00;;;;5047976;28;20259;-70
2022/03/28 03:36:53;;;;;;;16.73;5.97;;;;;6.50;101885.00;;;;5048180;28;20322;-69
2022/03/28 03:39:45;;;;;;;18.10;5.90;;;;;6.40;101888.00;;;;5047319;28;20243;-69
2022/03/28 03:42:32;;;;;;;16.03;6.67;;;;;6.30;101898.00;;;;5042239;28;20252;-68
2022/03/28 03:45:18;;;;;;;18.10;8.20;;;;;6.20;101861.00;;;;5048301;28;20237;-70
2022/03/28 03:48:05;;;;;;;15.40;6.70;;;;;6.30;101891.00;;;;5047362;28;20237;-70
2022/03/28 03:50:51;;;;;;;14.23;6.30;;;;;6.20;101895.00;;;;5047680;28;20252;-69
2022/03/28 03:53:39;;;;;;;14.50;6.97;;;;;6.20;101889.00;;;;5047638;28;20613;-69
2022/03/28 03:56:25;;;;;;;15.37;5.97;;;;;6.20;101882.00;;;;5034952;28;20279;-68
2022/03/28 03:59:12;;;;;;;14.67;5.97;;;;;6.20;101876.00;;;;5046990;28;20232;-69
2022/03/28 04:01:58;;;;;;;14.90;6.33;;;;;6.20;101881.00;;;;5045805;28;20864;-70
2022/03/28 04:04:45;;;;;;;19.20;6.73;;;;;6.10;101880.00;;;;5045738;28;20232;-71
2022/03/28 04:07:31;;;;;;;16.67;6.70;;;;;6.00;101878.00;;;;5036304;28;20332;-68
2022/03/28 04:10:18;;;;;;;16.27;6.67;;;;;6.00;101865.00;;;;5031960;28;20243;-66
2022/03/28 04:13:05;;;;;;;14.93;7.17;;;;;6.00;101874.00;;;;5047282;28;20304;-69
2022/03/28 04:15:52;;;;;;;15.50;7.53;;;;;6.00;101874.00;;;;5047431;28;20236;-70
2022/03/28 04:18:38;;;;;;;17.23;7.60;;;;;5.90;101869.00;;;;5044614;28;20265;-69
2022/03/28 04:21:24;;;;;;;16.00;7.30;;;;;5.90;101873.00;;;;5038733;28;20709;-68
2022/03/28 04:24:11;;;;;;;21.70;8.20;;;;;6.00;101877.00;;;;5047089;28;20224;-70
2022/03/28 04:26:58;;;;;;;19.63;7.50;;;;;5.90;101874.00;;;;5045967;28;20236;-69
2022/03/28 04:29:45;;;;;;;16.63;7.23;;;;;5.90;101876.00;;;;5046768;28;20336;-69
2022/03/28 04:32:31;;;;;;;20.87;7.33;;;;;5.80;101880.00;;;;5035116;28;20988;-69
2022/03/28 04:35:19;;;;;;;14.83;7.50;;;;;6.00;101856.00;;;;5031749;28;20248;-68
2022/03/28 04:38:06;;;;;;;18.37;7.70;;;;;5.90;101862.00;;;;5046505;28;20235;-69
2022/03/28 04:40:52;;;;;;;19.27;6.70;;;;;5.80;101870.00;;;;5046630;28;20240;-69
2022/03/28 04:43:40;;;;;;;17.20;7.43;;;;;5.80;101871.00;;;;5046650;28;20232;-69
2022/03/28 04:46:26;;;;;;;20.27;7.27;;;;;5.70;101870.00;;;;5033954;28;20299;-68
2022/03/28 04:49:14;;;;;;;15.93;7.57;;;;;5.70;101871.00;;;;5046181;28;20367;-69
2022/03/28 04:52:00;;;;;;;16.97;7.23;;;;;5.60;101870.00;;;;5046589;28;20232;-68
2022/03/28 04:54:46;;;;;;;17.80;7.57;;;;;5.70;101869.00;;;;5046636;28;20264;-69
2022/03/28 04:57:33;;;;;;;15.90;6.83;;;;;5.70;101856.00;;;;5035276;28;20240;-66
2022/03/28 05:00:21;;;;;;;17.57;7.23;;;;;5.70;101869.00;;;;5031414;28;20235;-68
2022/03/28 05:03:07;;;;;;;14.37;7.17;;;;;5.70;101870.00;;;;5046231;28;20236;-68
2022/03/28 05:05:53;;;;;;;15.57;7.90;;;;;5.70;101871.00;;;;5043670;28;20273;-68
2022/03/28 05:08:40;;;;;;;13.63;7.20;;;;;5.60;101858.00;;;;5046127;28;20228;-68
2022/03/28 05:11:26;;;;;;;17.17;7.70;;;;;5.70;101859.00;;;;5032923;28;20239;-66
2022/03/28 05:14:12;;;;;;;17.20;7.53;;;;;5.60;101858.00;;;;5045856;28;20228;-68
2022/03/28 05:17:00;;;;;;;15.33;6.97;;;;;5.60;101857.00;;;;5046235;28;20600;-68
2022/03/28 05:19:45;;;;;;;17.83;8.33;;;;;5.60;101848.00;;;;5043285;28;20732;-68
2022/03/28 05:22:32;;;;;;;19.63;8.07;;;;;5.60;101858.00;;;;5033952;28;20240;-69
2022/03/28 05:25:18;;;;;;;17.47;8.23;;;;;5.50;101856.00;;;;5044913;28;20695;-66
2022/03/28 05:28:05;;;;;;;19.73;7.97;;;;;5.70;101857.00;;;;5045466;28;20275;-69
2022/03/28 05:30:52;;;;;;;20.80;8.07;;;;;5.70;101855.00;;;;5038793;28;20387;-68
2022/03/28 05:33:39;;;;;;;23.57;8.13;;;;;5.70;101852.00;;;;5046268;28;20367;-69
2022/03/28 05:36:25;;;;;;;18.93;8.20;;;;;5.70;101847.00;;;;5032806;28;20271;-70
2022/03/28 05:39:12;;;;;;;20.63;8.47;;;;;5.60;101854.00;;;;5046355;28;20252;-65
2022/03/28 05:41:58;;;;;;;17.53;7.40;;;;;5.50;101845.00;;;;5046933;28;20232;-69
2022/03/28 05:44:45;;;;;;;14.03;7.20;;;;;5.60;101842.00;;;;5047769;28;20243;-69
2022/03/28 05:47:31;;;;;;;19.33;8.60;;;;;5.70;101837.00;;;;5034084;28;20248;-69
2022/03/28 05:50:19;;;;;;;20.63;8.90;;;;;5.70;101842.00;;;;5047639;28;20236;-67
2022/03/28 05:53:05;;;;;;;22.53;9.00;;;;;5.70;101850.00;;;;5047294;28;20247;-69
2022/03/28 05:55:51;;;;;;;18.50;8.73;;;;;5.70;101840.00;;;;5045959;28;20703;-69
2022/03/28 05:58:38;;;;;;;21.07;8.67;;;;;5.80;101842.00;;;;5047255;28;20382;-69
2022/03/28 06:01:25;;;;;;;19.67;8.07;;;;;5.80;101841.00;;;;5034018;28;20208;-68
2022/03/28 06:04:11;;;;;;;19.63;8.53;;;;;5.90;101838.00;;;;5047527;28;20681;-69
2022/03/28 06:06:59;;;;;;;20.10;8.57;;;;;6.00;101841.00;;;;5041142;28;20248;-69
2022/03/28 06:09:45;;;;;;;22.67;8.47;;;;;6.00;101839.00;;;;5047238;28;20244;-69
2022/03/28 06:12:32;;;;;;;17.17;7.80;;;;;6.00;101837.00;;;;5033793;28;20236;-68
2022/03/28 06:15:18;;;;;;;17.00;9.33;;;;;6.10;101843.00;;;;5046121;28;20702;-69
2022/03/28 06:18:05;;;;;;;22.87;9.33;;;;;6.20;101828.00;;;;5043000;28;20277;-68
2022/03/28 06:20:52;;;;;;;18.97;9.33;;;;;6.30;101829.00;;;;5046793;28;20248;-68
2022/03/28 06:23:39;;;;;;;20.50;9.33;;;;;6.30;101829.00;;;;5035408;28;20240;-68
2022/03/28 06:26:26;;;;;;;25.80;10.07;;;;;6.40;101830.00;;;;5034616;28;20307;-68
2022/03/28 06:29:12;;;;;;;24.43;11.40;;;;;6.50;101826.00;;;;5043153;28;21912;-68
2022/03/28 06:31:59;;;;;;;22.70;10.50;;;;;6.60;101835.00;;;;5045527;28;20270;-65
2022/03/28 06:34:48;;;;;;;20.97;9.60;;;;;6.70;101835.00;;;;5045297;28;20252;-68
2022/03/28 06:37:35;;;;;;;28.83;11.03;;;;;6.80;101839.00;;;;5032860;28;20236;-68
2022/03/28 06:40:23;;;;;;;22.80;10.30;;;;;6.90;101840.00;;;;5028654;28;20233;-68
2022/03/28 06:43:09;;;;;;;28.17;12.70;;;;;7.00;101828.00;;;;5044740;28;20228;-65
2022/03/28 06:45:56;;;;;;;25.00;10.43;;;;;7.10;101832.00;;;;5044804;28;20240;-68
2022/03/28 06:48:42;;;;;;;24.20;11.13;;;;;7.20;101818.00;;;;5044738;28;20241;-71
2022/03/28 06:51:28;;;;;;;28.50;11.53;;;;;7.30;101829.00;;;;5032422;28;20232;-71
2022/03/28 06:54:19;;;;;;;26.40;10.87;;;;;7.40;101830.00;;;;5058141;28;20267;-69
2022/03/28 06:57:06;;;;;;;26.37;11.70;;;;;7.50;101830.00;;;;5056267;28;20620;-68
2022/03/28 06:59:53;;;;;;;29.33;11.57;;;;;7.60;101827.00;;;;5064069;28;20256;-71
2022/03/28 07:02:40;;;;;;;22.70;10.30;;;;;7.60;101820.00;;;;5050522;28;20227;-69
2022/03/28 07:05:28;;;;;;;25.73;11.13;;;;;7.70;101831.00;;;;5048248;28;20228;-70
2022/03/28 07:08:15;;;;;;;33.57;11.93;;;;;7.90;101823.00;;;;5073615;28;20239;-70
2022/03/28 07:11:02;;;;;;;30.50;12.73;;;;;7.90;101830.00;;;;5071611;28;20244;-69
2022/03/28 07:13:49;;;;;;;42.03;14.20;;;;;8.00;101825.00;;;;5052643;28;20809;-70
2022/03/28 07:16:36;;;;;;;31.53;11.60;;;;;8.20;101825.00;;;;5035982;28;20255;-71
2022/03/28 07:19:22;;;;;;;30.23;12.00;;;;;8.20;101814.00;;;;5044432;28;20232;-70
2022/03/28 07:22:08;;;;;;;30.87;10.67;;;;;8.30;101813.00;;;;5044616;28;20278;-69
2022/03/28 07:24:55;;;;;;;31.33;12.83;;;;;8.30;101809.00;;;;5047209;28;20231;-69
2022/03/28 07:27:42;;;;;;;30.70;13.50;;;;;8.40;101808.00;;;;5036416;28;20232;-69
2022/03/28 07:30:31;;;;;;;28.93;12.30;;;;;8.40;101813.00;;;;5047039;28;20226;-69
2022/03/28 07:33:18;;;;;;;30.53;12.50;;;;;8.50;101801.00;;;;5048179;28;20356;-69
2022/03/28 07:36:04;;;;;;;27.50;13.60;;;;;8.80;101811.00;;;;5047935;28;20254;-68
2022/03/28 07:38:50;;;;;;;28.17;12.60;;;;;8.90;101809.00;;;;5047729;28;20299;-71
2022/03/28 07:41:36;;;;;;;33.50;12.93;;;;;9.00;101806.00;;;;5035014;28;20596;-70
2022/03/28 07:44:23;;;;;;;29.43;12.30;;;;;9.00;101806.00;;;;5048210;28;20226;-71
2022/03/28 07:47:11;;;;;;;27.90;12.40;;;;;9.20;101788.00;;;;5047682;28;20226;-71
2022/03/28 07:49:59;;;;;;;29.33;12.10;;;;;9.30;101794.00;;;;5047309;28;20234;-71
2022/03/28 07:52:46;;;;;;;28.77;12.27;;;;;9.40;101786.00;;;;5042395;28;20756;-69
2022/03/28 07:55:32;;;;;;;25.57;11.60;;;;;9.50;101783.00;;;;5033459;28;20986;-70
2022/03/28 07:58:18;;;;;;;28.73;12.40;;;;;9.70;101789.00;;;;5047249;28;20359;-69
2022/03/28 08:01:04;;;;;;;35.30;12.77;;;;;9.60;101786.00;;;;5047401;28;20724;-70
2022/03/28 08:03:52;;;;;;;29.27;12.67;;;;;9.70;101786.00;;;;5047728;28;20231;-70
2022/03/28 08:06:39;;;;;;;33.23;12.53;;;;;9.90;101795.00;;;;5038644;28;21014;-69
2022/03/28 08:09:25;;;;;;;27.47;11.60;;;;;9.90;101789.00;;;;5047425;28;20300;-67
2022/03/28 08:12:11;;;;;;;28.33;12.63;;;;;10.00;101781.00;;;;5047445;28;20381;-70
2022/03/28 08:14:58;;;;;;;28.10;12.77;;;;;10.10;101774.00;;;;5047764;28;20615;-70
2022/03/28 08:17:45;;;;;;;29.50;13.23;;;;;10.30;101784.00;;;;5034099;28;20433;-70
2022/03/28 08:20:33;;;;;;;30.33;12.70;;;;;10.40;101778.00;;;;5032494;28;20329;-70
2022/03/28 08:23:20;;;;;;;30.43;13.27;;;;;10.40;101768.00;;;;5047032;28;20291;-69
2022/03/28 08:26:08;;;;;;;26.37;11.90;;;;;10.50;101772.00;;;;5045065;28;20279;-69
2022/03/28 08:28:54;;;;;;;30.87;12.33;;;;;10.70;101765.00;;;;5048231;28;20608;-69
2022/03/28 08:31:41;;;;;;;28.63;12.07;;;;;10.90;101764.00;;;;5035047;28;20725;-68
2022/03/28 08:34:27;;;;;;;27.03;12.13;;;;;11.10;101761.00;;;;5032075;28;20600;-71
2022/03/28 08:37:16;;;;;;;26.40;11.63;;;;;11.20;101760.00;;;;5046930;28;20303;-70
2022/03/28 08:40:03;;;;;;;27.73;12.60;;;;;11.30;101749.00;;;;5046345;28;20612;-68
2022/03/28 08:42:49;;;;;;;27.40;11.67;;;;;11.40;101739.00;;;;5047400;28;20314;-70
2022/03/28 08:45:37;;;;;;;29.43;12.00;;;;;11.60;101758.00;;;;5033320;28;20310;-66
2022/03/28 08:48:23;;;;;;;26.33;11.57;;;;;11.50;101753.00;;;;5047757;28;20232;-66
2022/03/28 08:51:11;;;;;;;25.93;11.90;;;;;11.60;101753.00;;;;5046979;28;20228;-69
2022/03/28 08:53:58;;;;;;;29.50;11.43;;;;;11.80;101752.00;;;;5047394;28;20248;-70
2022/03/28 08:56:45;;;;;;;27.70;12.60;;;;;11.90;101735.00;;;;5035323;28;20236;-69
2022/03/28 08:59:31;;;;;;;39.60;14.53;;;;;12.00;101745.00;;;;5030965;28;20329;-70
2022/03/28 09:02:31;;;;;;;29.17;12.97;;;;;12.30;101742.00;;;;5046519;28;20276;-70
2022/03/28 09:05:20;;;;;;;28.03;13.10;;;;;12.40;101746.00;;;;5041818;28;20240;-69
2022/03/28 09:08:08;;;;;;;32.77;13.30;;;;;12.60;101740.00;;;;5045962;28;20264;-70
2022/03/28 09:10:59;;;;;;;23.40;11.70;;;;;12.70;101737.00;;;;5046286;28;20738;-69
2022/03/28 09:13:45;;;;;;;28.40;12.63;;;;;13.00;101729.00;;;;5035196;28;20295;-70
2022/03/28 09:16:34;;;;;;;24.77;11.67;;;;;13.10;101728.00;;;;5030825;28;20232;-70
2022/03/28 09:19:20;;;;;;;24.00;12.20;;;;;13.30;101747.00;;;;5039043;28;20816;-70
2022/03/28 09:22:10;;;;;;;30.17;13.27;;;;;13.40;101739.00;;;;5046075;28;20318;-69
2022/03/28 09:24:59;;;;;;;31.07;12.27;;;;;13.60;101732.00;;;;5044398;28;20240;-70
2022/03/28 09:27:47;;;;;;;24.20;12.23;;;;;13.80;101730.00;;;;5034084;28;20288;-70
2022/03/28 09:30:33;;;;;;;32.23;12.93;;;;;13.70;101720.00;;;;5044158;28;20228;-70
2022/03/28 09:33:20;;;;;;;25.27;12.03;;;;;13.70;101716.00;;;;5045820;28;21096;-70
2022/03/28 09:36:06;;;;;;;26.53;10.97;;;;;14.00;101722.00;;;;5045800;28;20257;-68
2022/03/28 09:38:56;;;;;;;23.47;10.83;;;;;14.00;101718.00;;;;5045744;28;20228;-70
2022/03/28 09:41:42;;;;;;;26.30;11.93;;;;;14.40;101718.00;;;;5032966;28;20228;-69
2022/03/28 09:44:39;;;;;;;26.53;11.73;;;;;14.40;101713.00;;;;5045535;28;20689;-70
2022/03/28 09:47:25;;;;;;;25.47;11.30;;;;;14.60;101711.00;;;;5045761;28;20263;-70
2022/03/28 09:50:12;;;;;;;27.67;12.13;;;;;14.90;101708.00;;;;5045253;28;20615;-67
2022/03/28 09:53:11;;;;;;;35.27;12.33;;;;;14.90;101705.00;;;;5045797;28;20631;-70
2022/03/28 09:55:59;;;;;;;23.57;9.73;;;;;15.10;101697.00;;;;5036824;28;20244;-71
2022/03/28 09:58:49;;;;;;;22.60;10.30;;;;;15.20;101695.00;;;;5033156;28;20231;-68
2022/03/28 10:01:40;;;;;;;25.43;10.63;;;;;15.20;101693.00;;;;5030464;28;20254;-70
2022/03/28 10:04:29;;;;;;;25.30;10.73;;;;;15.40;101689.00;;;;5045574;28;20236;-70
2022/03/28 10:07:15;;;;;;;25.50;10.60;;;;;15.50;101683.00;;;;5040979;28;20243;-70
2022/03/28 10:10:03;;;;;;;23.80;10.37;;;;;15.40;101692.00;;;;5044886;28;20248;-71
2022/03/28 10:12:49;;;;;;;26.97;10.90;;;;;15.60;101684.00;;;;5034197;28;20299;-70
2022/03/28 10:15:36;;;;;;;27.17;10.83;;;;;15.70;101674.00;;;;5030090;28;20242;-69
2022/03/28 10:18:24;;;;;;;23.37;10.40;;;;;15.70;101680.00;;;;5039700;28;20241;-71
2022/03/28 10:21:16;;;;;;;24.70;10.73;;;;;15.70;101673.00;;;;5045038;28;20336;-71
2022/03/28 10:24:07;;;;;;;24.40;10.40;;;;;16.00;101676.00;;;;5045030;28;20305;-70
2022/03/28 10:26:57;;;;;;;23.50;10.63;;;;;16.20;101670.00;;;;5038170;28;20256;-70
2022/03/28 10:29:45;;;;;;;22.03;10.70;;;;;16.10;101659.00;;;;5031051;28;20351;-70
2022/03/28 10:32:31;;;;;;;23.70;11.17;;;;;16.40;101657.00;;;;5044734;28;20643;-70
2022/03/28 10:35:19;;;;;;;27.73;11.87;;;;;16.60;101650.00;;;;5043292;28;20294;-71
2022/03/28 10:38:15;;;;;;;23.50;10.20;;;;;16.70;101647.00;;;;5044913;28;20659;-70
2022/03/28 10:41:03;;;;;;;21.47;9.10;;;;;16.80;101634.00;;;;5035691;28;20243;-70
2022/03/28 10:43:50;;;;;;;23.80;11.00;;;;;16.90;101635.00;;;;5033573;28;20229;-70
2022/03/28 10:46:37;;;;;;;26.87;12.40;;;;;16.90;101638.00;;;;5029430;28;20302;-70
2022/03/28 10:49:24;;;;;;;23.60;10.97;;;;;17.00;101634.00;;;;5041705;28;20353;-70
2022/03/28 10:52:18;;;;;;;20.47;10.80;;;;;16.70;101631.00;;;;5044490;28;20371;-68
2022/03/28 10:55:09;;;;;;;24.27;11.73;;;;;16.90;101632.00;;;;5044865;28;20236;-71
2022/03/28 10:58:05;;;;;;;22.97;11.30;;;;;17.10;101622.00;;;;5035021;28;20808;-70
2022/03/28 11:01:18;;;;;;;22.70;10.97;;;;;17.40;101612.00;;;;5033260;28;20264;-71
2022/03/28 11:04:07;;;;;;;23.83;11.97;;;;;17.40;101623.00;;;;5036504;28;20820;-70
2022/03/28 11:07:03;;;;;;;24.80;11.60;;;;;17.30;101618.00;;;;5039129;28;20236;-70
2022/03/28 11:09:54;;;;;;;24.67;11.13;;;;;17.60;101617.00;;;;5032495;28;20302;-70
2022/03/28 11:12:42;;;;;;;20.57;10.20;;;;;17.70;101615.00;;;;5029770;28;20271;-70
2022/03/28 11:15:29;;;;;;;22.53;10.60;;;;;17.80;101616.00;;;;5044214;28;20256;-71
2022/03/28 11:18:28;;;;;;;22.40;10.37;;;;;18.00;101600.00;;;;5039027;28;20241;-70
2022/03/28 11:21:15;;;;;;;22.03;10.33;;;;;17.90;101603.00;;;;5043938;28;20972;-68
2022/03/28 11:24:09;;;;;;;23.93;10.50;;;;;18.00;101594.00;;;;5044185;28;20236;-70
2022/03/28 11:27:03;;;;;;;23.07;10.27;;;;;18.40;101607.00;;;;5038467;28;20245;-71
2022/03/28 11:29:50;;;;;;;24.50;10.33;;;;;18.70;101588.00;;;;5044383;28;20280;-68
2022/03/28 11:32:37;;;;;;;25.23;11.20;;;;;18.50;101587.00;;;;5028735;28;20243;-70
2022/03/28 11:35:24;;;;;;;24.47;10.93;;;;;18.60;101583.00;;;;5044444;28;20307;-69
2022/03/28 11:38:10;;;;;;;23.30;10.70;;;;;18.90;101580.00;;;;5044261;28;20436;-70
2022/03/28 11:40:58;;;;;;;22.83;10.37;;;;;18.80;101578.00;;;;5038404;28;21094;-70
2022/03/28 11:43:48;;;;;;;23.70;11.03;;;;;18.90;101584.00;;;;5030541;28;20356;-71
2022/03/28 11:46:34;;;;;;;21.03;10.03;;;;;19.00;101571.00;;;;5044216;28;20268;-70
2022/03/28 11:49:21;;;;;;;20.83;9.93;;;;;18.80;101577.00;;;;5043943;28;20235;-71
2022/03/28 11:52:08;;;;;;;22.40;9.70;;;;;18.90;101574.00;;;;5044186;28;20228;-70
2022/03/28 11:54:55;;;;;;;21.80;10.23;;;;;19.10;101563.00;;;;5036486;28;20322;-69
2022/03/28 12:00:54;;;;;;;16.00;8.77;;;;;19.30;101556.00;;;;5035721;28;20351;-70
2022/03/28 12:03:49;;;;;;;17.20;8.23;;;;;19.40;101550.00;;;;5032247;28;20736;-70
2022/03/28 12:06:38;;;;;;;18.87;9.37;;;;;19.50;101558.00;;;;5042270;28;20362;-71
2022/03/28 12:09:24;;;;;;;17.63;8.67;;;;;19.50;101548.00;;;;5047581;28;21044;-70
2022/03/28 12:12:11;;;;;;;18.57;10.00;;;;;19.30;101538.00;;;;5047775;28;20691;-70
2022/03/28 12:15:03;;;;;;;17.73;9.20;;;;;19.30;101544.00;;;;5037787;28;20232;-70
2022/03/28 12:17:53;;;;;;;17.27;9.07;;;;;19.40;101535.00;;;;5031676;28;20241;-70
2022/03/28 12:20:42;;;;;;;17.77;8.70;;;;;19.60;101530.00;;;;5047220;28;20336;-67
2022/03/28 12:23:28;;;;;;;15.93;8.67;;;;;19.60;101519.00;;;;5047777;28;20236;-70
2022/03/28 12:26:15;;;;;;;16.93;9.47;;;;;19.60;101522.00;;;;5042442;28;20230;-70
2022/03/28 12:29:04;;;;;;;22.13;10.57;;;;;19.40;101520.00;;;;5046785;28;20775;-70
2022/03/28 12:31:52;;;;;;;17.87;9.43;;;;;19.50;101520.00;;;;5039011;28;20279;-68
2022/03/28 12:34:40;;;;;;;18.17;9.47;;;;;19.80;101519.00;;;;5047213;28;20435;-71
2022/03/28 12:37:27;;;;;;;19.40;9.10;;;;;19.90;101513.00;;;;5047690;28;20352;-70
2022/03/28 12:40:13;;;;;;;21.43;9.87;;;;;19.80;101503.00;;;;5046548;28;20709;-70
2022/03/28 12:43:02;;;;;;;20.43;10.50;;;;;19.80;101513.00;;;;5036402;28;20244;-70
2022/03/28 12:45:49;;;;;;;17.40;9.50;;;;;20.10;101499.00;;;;5033456;28;20673;-69
2022/03/28 12:48:41;;;;;;;19.13;9.60;;;;;19.90;101490.00;;;;5046416;28;20233;-69
2022/03/28 12:51:31;;;;;;;18.73;10.00;;;;;19.80;101490.00;;;;5046823;28;20236;-69
2022/03/28 12:54:20;;;;;;;19.67;9.10;;;;;19.90;101492.00;;;;5046539;28;20779;-69
2022/03/28 12:57:06;;;;;;;20.83;10.40;;;;;20.00;101489.00;;;;5046577;28;20631;-70
2022/03/28 12:59:54;;;;;;;19.30;10.57;;;;;19.90;101486.00;;;;5034166;28;20248;-70
2022/03/28 13:02:49;;;;;;;21.73;10.13;;;;;20.10;101478.00;;;;5030983;28;20713;-70
2022/03/28 13:05:36;;;;;;;23.53;11.57;;;;;20.30;101465.00;;;;5039679;28;20884;-70
2022/03/28 13:08:33;;;;;;;21.03;10.70;;;;;20.30;101472.00;;;;5045981;28;20295;-70
2022/03/28 13:11:21;;;;;;;21.10;11.13;;;;;20.10;101469.00;;;;5046278;28;20785;-71
2022/03/28 13:14:08;;;;;;;22.47;10.90;;;;;19.90;101467.00;;;;5046466;28;20228;-70
2022/03/28 13:17:10;;;;;;;23.90;11.17;;;;;20.30;101447.00;;;;5033869;28;20748;-70
2022/03/28 13:19:58;;;;;;;20.97;10.93;;;;;20.10;101454.00;;;;5033939;28;20376;-70
2022/03/28 13:22:46;;;;;;;22.43;10.67;;;;;20.00;101446.00;;;;5030895;28;20236;-70
2022/03/28 13:25:43;;;;;;;21.53;11.30;;;;;20.20;101434.00;;;;5041192;28;20393;-70
2022/03/28 13:28:32;;;;;;;21.83;11.00;;;;;20.40;101427.00;;;;5045117;28;20719;-70
2022/03/28 13:31:19;;;;;;;24.23;11.60;;;;;20.40;101433.00;;;;5043247;28;20291;-69
2022/03/28 13:34:05;;;;;;;21.33;10.87;;;;;20.70;101431.00;;;;5046073;28;20300;-71
2022/03/28 13:36:52;;;;;;;19.90;10.67;;;;;21.00;101440.00;;;;5029626;28;20234;-70
2022/03/28 13:39:39;;;;;;;20.23;10.80;;;;;21.10;101417.00;;;;5045175;28;20230;-70
2022/03/28 13:42:27;;;;;;;25.03;11.77;;;;;21.30;101426.00;;;;5045964;28;20336;-70
2022/03/28 13:45:14;;;;;;;21.90;11.63;;;;;21.10;101420.00;;;;5045777;28;20243;-70
2022/03/28 13:48:02;;;;;;;22.73;11.50;;;;;21.20;101415.00;;;;5034165;28;20240;-70